createdAt,value
2022-09-16T00:04:41.647Z,0.60
2022-09-16T00:11:20.630Z,0.88
2022-09-16T00:14:08.141Z,0.70
2022-09-16T00:26:26.544Z,1.10
2022-09-16T00:41:57.220Z,1.08
2022-09-16T00:45:41.981Z,0.80
2022-09-16T00:48:41.723Z,1.38
2022-09-16T01:03:55.486Z,1.45
2022-09-16T01:06:26.601Z,1.00
2022-09-16T01:08:56.201Z,1.00
2022-09-16T01:11:25.746Z,1.00
2022-09-16T01:13:53.945Z,0.93
2022-09-16T01:16:41.583Z,1.30
2022-09-16T01:19:49.983Z,0.90
2022-09-16T01:22:47.541Z,1.52
2022-09-16T01:25:57.156Z,0.90
2022-09-16T01:28:55.433Z,0.90
2022-09-16T01:31:50.322Z,1.45
2022-09-16T01:35:05.925Z,1.15
2022-09-16T01:38:11.304Z,1.10
2022-09-16T01:41:11.033Z,0.98
2022-09-16T01:44:36.859Z,0.80
2022-09-16T01:47:31.087Z,0.85
2022-09-16T01:50:15.246Z,0.88
2022-09-16T01:52:58.145Z,0.90
2022-09-16T01:55:43.837Z,0.80
2022-09-16T01:58:27.779Z,1.38
2022-09-16T02:01:12.489Z,1.00
2022-09-16T02:03:50.852Z,0.80
2022-09-16T02:06:24.966Z,0.80
2022-09-16T02:08:58.956Z,0.90
2022-09-16T02:11:26.694Z,0.70
2022-09-16T02:17:25.547Z,0.80
2022-09-16T02:20:03.262Z,0.80
2022-09-16T02:22:43.303Z,0.70
2022-09-16T02:25:14.417Z,1.00
2022-09-16T02:27:46.508Z,1.00
2022-09-16T02:30:26.635Z,0.90
2022-09-16T02:33:20.736Z,0.88
2022-09-16T02:36:24.681Z,0.82
2022-09-16T02:42:11.723Z,1.10
2022-09-16T02:44:40.571Z,1.40
2022-09-16T02:47:36.254Z,1.30
2022-09-16T02:50:38.980Z,1.02
2022-09-16T02:53:48.336Z,1.23
2022-09-16T02:56:30.496Z,1.52
2022-09-16T02:59:00.877Z,1.20
2022-09-16T03:01:34.087Z,1.30
2022-09-16T03:04:02.012Z,1.58
2022-09-16T03:06:31.286Z,1.30
2022-09-16T03:09:01.173Z,1.40
2022-09-16T03:11:36.157Z,1.23
2022-09-16T03:14:43.786Z,1.73
2022-09-16T03:17:28.423Z,1.15
2022-09-16T03:20:26.715Z,1.27
2022-09-16T03:23:22.189Z,1.25
2022-09-16T03:26:17.833Z,1.30
2022-09-16T03:29:25.545Z,1.15
2022-09-16T03:32:24.560Z,0.77
2022-09-16T03:35:16.699Z,1.40
2022-09-16T03:37:48.877Z,1.40
2022-09-16T03:40:21.392Z,1.33
2022-09-16T03:42:48.812Z,2.05
2022-09-16T03:45:21.155Z,1.45
2022-09-16T03:47:56.051Z,1.10
2022-09-16T03:50:23.214Z,1.58
2022-09-16T03:52:50.368Z,1.33
2022-09-16T03:55:19.256Z,1.40
2022-09-16T03:57:46.282Z,1.05
2022-09-16T04:00:16.031Z,1.33
2022-09-16T04:02:43.355Z,1.70
2022-09-16T04:05:10.708Z,1.20
2022-09-16T04:07:38.419Z,1.10
2022-09-16T04:10:08.346Z,1.27
2022-09-16T04:12:39.373Z,1.25
2022-09-16T04:15:25.653Z,1.40
2022-09-16T04:18:00.245Z,1.05
2022-09-16T04:20:54.499Z,1.20
2022-09-16T04:23:42.569Z,1.42
2022-09-16T04:26:16.078Z,1.00
2022-09-16T04:28:48.025Z,1.30
2022-09-16T04:31:16.642Z,1.75
2022-09-16T04:33:44.385Z,1.40
2022-09-16T04:36:19.494Z,1.35
2022-09-16T04:38:52.966Z,1.30
2022-09-16T04:41:24.159Z,1.20
2022-09-16T04:44:00.594Z,1.60
2022-09-16T04:46:30.298Z,1.40
2022-09-16T04:48:59.650Z,1.30
2022-09-16T04:51:31.258Z,1.70
2022-09-16T04:54:10.665Z,1.13
2022-09-16T04:56:59.186Z,1.35
2022-09-16T04:59:28.068Z,1.30
2022-09-16T05:01:55.429Z,1.27
2022-09-16T05:04:25.404Z,1.17
2022-09-16T05:06:53.215Z,1.90
2022-09-16T05:10:06.859Z,1.67
2022-09-16T05:12:49.493Z,1.50
2022-09-16T05:15:29.189Z,1.25
2022-09-16T05:17:56.314Z,1.30
2022-09-16T05:20:25.817Z,1.50
2022-09-16T05:22:52.785Z,1.75
2022-09-16T05:25:19.972Z,1.42
2022-09-16T05:27:47.626Z,1.48
2022-09-16T05:30:15.981Z,1.35
2022-09-16T05:32:43.202Z,0.90
2022-09-16T05:35:11.590Z,1.60
2022-09-16T05:37:41.423Z,1.08
2022-09-16T05:40:12.843Z,1.20
2022-09-16T05:42:42.204Z,1.30
2022-09-16T05:45:09.876Z,1.20
2022-09-16T05:47:37.182Z,0.98
2022-09-16T05:50:11.780Z,1.20
2022-09-16T05:52:42.639Z,1.05
2022-09-16T05:56:13.354Z,1.10
2022-09-16T05:58:44.095Z,0.95
2022-09-16T06:01:48.373Z,1.38
2022-09-16T06:04:20.424Z,1.30
2022-09-16T06:07:02.850Z,1.23
2022-09-16T06:09:55.252Z,1.90
2022-09-16T06:12:26.834Z,1.80
2022-09-16T06:15:28.496Z,2.13
2022-09-16T06:18:24.577Z,1.70
2022-09-16T06:21:00.100Z,1.95
2022-09-16T06:23:47.304Z,1.90
2022-09-16T06:26:34.910Z,1.92
2022-09-16T06:33:20.298Z,1.75
2022-09-16T07:14:55.355Z,1.20
2022-09-16T07:19:35.448Z,1.27
2022-09-16T07:26:22.028Z,1.20
2022-09-16T07:38:51.927Z,0.98
2022-09-16T07:41:35.996Z,1.05
2022-09-16T07:47:48.307Z,0.82
2022-09-16T07:53:37.417Z,0.85
2022-09-16T07:59:31.827Z,1.30
2022-09-16T08:02:22.352Z,0.93
2022-09-16T08:09:38.131Z,0.98
2022-09-16T08:12:11.157Z,0.60
2022-09-16T08:15:00.325Z,1.00
2022-09-16T08:17:33.598Z,1.00
2022-09-16T08:20:38.108Z,0.90
2022-09-16T08:29:07.388Z,1.00
2022-09-16T08:49:18.581Z,0.80
2022-09-16T08:52:41.219Z,0.35
2022-09-16T08:55:18.794Z,0.77
2022-09-16T08:58:56.104Z,0.75
2022-09-16T09:02:44.404Z,0.50
2022-09-16T09:05:47.613Z,0.77
2022-09-16T09:08:38.844Z,0.77
2022-09-16T09:24:08.333Z,0.80
2022-09-16T09:27:17.979Z,1.23
2022-09-16T09:30:51.741Z,0.50
2022-09-16T09:39:28.341Z,0.75
2022-09-16T09:43:46.082Z,0.43
2022-09-16T10:05:47.228Z,0.55
2022-09-16T10:43:35.010Z,0.88
2022-09-16T10:54:48.080Z,0.70
2022-09-16T11:13:52.528Z,0.80
2022-09-16T11:20:07.225Z,1.10
2022-09-16T11:33:09.743Z,0.70
2022-09-16T11:36:08.883Z,0.80
2022-09-16T11:38:49.037Z,0.82
2022-09-16T11:45:28.139Z,0.98
2022-09-16T11:57:33.338Z,1.25
2022-09-16T12:01:36.242Z,0.90
2022-09-16T12:05:04.998Z,0.70
2022-09-16T12:09:33.820Z,0.63
2022-09-16T12:16:29.410Z,0.35
2022-09-16T12:19:47.701Z,0.52
2022-09-16T12:22:42.861Z,0.55
2022-09-16T12:26:17.475Z,0.50
2022-09-16T12:29:25.228Z,0.52
2022-09-16T12:38:07.351Z,0.40
2022-09-16T13:15:11.498Z,0.50
2022-09-16T13:17:41.085Z,0.52
2022-09-16T13:21:21.239Z,0.45
2022-09-16T13:28:53.297Z,0.60
2022-09-16T13:35:08.136Z,0.35
2022-09-16T13:39:05.459Z,0.60
2022-09-16T14:14:48.787Z,0.80
2022-09-16T14:31:37.926Z,0.40
2022-09-16T14:57:58.046Z,0.50
2022-09-16T15:07:16.649Z,0.47
2022-09-16T15:10:05.899Z,0.30
2022-09-16T15:12:48.142Z,0.40
2022-09-16T15:58:31.912Z,0.50
2022-09-16T16:01:49.745Z,0.50
2022-09-16T16:04:32.048Z,0.60
2022-09-16T16:07:03.131Z,0.55
2022-09-16T16:09:34.734Z,0.70
2022-09-16T16:12:16.604Z,0.50
2022-09-16T16:14:44.295Z,0.60
2022-09-16T16:17:22.288Z,0.70
2022-09-16T16:19:56.447Z,0.70
2022-09-16T16:22:24.530Z,0.70
2022-09-16T16:24:52.040Z,0.85
2022-09-16T16:27:19.499Z,0.70
2022-09-16T16:29:49.009Z,0.90
2022-09-16T16:32:17.198Z,0.60
2022-09-16T16:34:50.476Z,0.82
2022-09-16T16:37:47.617Z,0.90
2022-09-16T16:44:27.651Z,1.30
2022-09-16T16:55:43.702Z,0.95
2022-09-16T16:59:09.877Z,1.00
2022-09-16T17:01:57.251Z,1.30
2022-09-16T17:08:53.293Z,1.02
2022-09-16T17:12:02.537Z,1.33
2022-09-16T17:19:15.716Z,1.40
2022-09-16T17:21:44.114Z,1.10
2022-09-16T17:24:18.471Z,1.25
2022-09-16T17:26:58.062Z,1.40
2022-09-16T17:29:34.667Z,1.38
2022-09-16T17:32:19.238Z,1.10
2022-09-16T17:35:41.932Z,1.77
2022-09-16T17:38:35.100Z,1.40
2022-09-16T17:41:08.712Z,1.70
2022-09-16T17:43:40.450Z,2.28
2022-09-16T17:46:16.073Z,1.70
2022-09-16T17:51:53.417Z,1.58
2022-09-16T17:54:22.089Z,1.95
2022-09-16T17:56:49.282Z,2.08
2022-09-16T17:59:18.671Z,1.70
2022-09-16T18:01:46.339Z,2.03
2022-09-16T18:04:13.896Z,1.90
2022-09-16T18:07:06.061Z,2.28
2022-09-16T18:10:38.934Z,2.53
2022-09-16T18:13:06.168Z,2.33
2022-09-16T18:16:37.574Z,2.22
2022-09-16T18:19:23.052Z,2.20
2022-09-16T18:22:43.292Z,2.40
2022-09-16T18:29:29.031Z,1.83
2022-09-16T18:32:47.239Z,2.50
2022-09-16T18:58:05.914Z,1.95
2022-09-16T19:17:06.923Z,1.33
2022-09-16T19:23:29.095Z,1.23
2022-09-16T19:26:31.167Z,1.30
2022-09-16T19:30:26.955Z,1.27
2022-09-16T19:47:56.305Z,1.60
2022-09-16T19:50:47.107Z,1.10
2022-09-16T19:53:40.669Z,0.98
2022-09-16T19:56:58.302Z,1.13
2022-09-16T19:59:44.275Z,1.27
2022-09-16T20:07:02.365Z,1.17
2022-09-16T20:09:51.449Z,1.20
2022-09-16T20:12:18.921Z,1.30
2022-09-16T20:14:46.065Z,1.30
2022-09-16T20:17:13.180Z,1.25
2022-09-16T20:19:40.617Z,1.30
2022-09-16T20:22:08.964Z,1.35
2022-09-16T20:24:40.075Z,1.33
2022-09-16T20:27:31.784Z,1.40
2022-09-16T20:33:18.136Z,1.88
2022-09-16T20:36:26.148Z,1.50
2022-09-16T20:43:14.212Z,2.33
2022-09-16T20:46:16.866Z,2.35
2022-09-16T20:48:50.716Z,2.03
2022-09-16T20:52:42.544Z,1.63
2022-09-16T20:59:37.470Z,2.10
2022-09-16T21:02:11.898Z,1.95
2022-09-16T21:12:59.804Z,1.80
2022-09-16T21:19:06.895Z,1.08
2022-09-16T21:40:25.362Z,0.98
2022-09-16T21:50:37.112Z,0.98
2022-09-16T21:57:35.151Z,0.90
2022-09-16T22:34:28.654Z,0.90
2022-09-16T22:37:10.822Z,1.27
2022-09-16T22:43:16.700Z,1.20
2022-09-16T22:57:29.227Z,1.23
2022-09-16T23:00:44.612Z,1.40
2022-09-16T23:07:17.896Z,1.07
2022-09-16T23:09:48.531Z,1.58
2022-09-16T23:13:31.438Z,1.05
2022-09-16T23:17:08.819Z,1.35
2022-09-16T23:20:07.825Z,0.80
2022-09-16T23:31:16.485Z,1.10
2022-09-16T23:33:58.470Z,0.75
2022-09-16T23:36:34.349Z,1.20
2022-09-16T23:39:08.442Z,1.85
2022-09-16T23:41:40.367Z,1.48
2022-09-16T23:44:22.610Z,1.33
2022-09-16T23:46:52.667Z,1.08
2022-09-16T23:50:13.137Z,1.20
2022-09-16T23:57:23.828Z,1.25
